Time;durP1;ratioP1;P1;durP2;ratioP2;P2;SDS_P1;SDS_P2;PMS_P1;PMS_P2;Temp;Humidity;BMP_temperature;BMP_pressure;BME280_temperature;BME280_humidity;BME280_pressure;Samples;Min_cycle;Max_cycle;Signal;HPM_P1;HPM_P2
2022/12/02 00:01:27;;;;;;;8.23;6.55;;;;;;;17.06;51.16;96918.25;10473547;28;20575;-29
2022/12/02 00:06:30;;;;;;;9.00;6.87;;;;;;;17.02;50.75;96903.88;10478088;28;20036;-30
2022/12/02 00:11:30;;;;;;;9.82;6.82;;;;;;;16.99;51.22;96903.84;10480188;28;20738;-29
2022/12/02 00:16:31;;;;;;;9.93;7.07;;;;;;;17.03;50.57;96901.38;10472957;28;20111;-29
2022/12/02 00:21:31;;;;;;;10.27;7.63;;;;;;;17.02;50.48;96893.75;10478919;28;20040;-29
2022/12/02 00:26:32;;;;;;;8.80;6.97;;;;;;;16.97;50.81;96901.31;10478886;28;20035;-29
2022/12/02 00:31:32;;;;;;;7.47;6.27;;;;;;;17.01;50.85;96890.41;10476809;28;20653;-29
2022/12/02 00:36:32;;;;;;;7.13;6.38;;;;;;;16.79;50.99;96854.78;10465663;28;20025;-29
2022/12/02 00:41:33;;;;;;;8.23;7.03;;;;;;;16.98;50.83;96892.06;10473423;28;20033;-29
2022/12/02 00:46:34;;;;;;;7.23;6.07;;;;;;;16.96;51.30;96889.50;10474441;28;20040;-29
2022/12/02 00:51:36;;;;;;;8.15;6.78;;;;;;;16.95;51.35;96887.81;10476821;28;20438;-29
2022/12/02 00:56:37;;;;;;;6.72;6.00;;;;;;;17.00;50.67;96885.31;10477927;28;20036;-29
2022/12/02 01:01:39;;;;;;;7.60;6.80;;;;;;;17.08;50.35;96873.56;10470565;28;20033;-30
2022/12/02 01:06:40;;;;;;;8.23;6.90;;;;;;;17.09;50.46;96880.31;10476176;28;20381;-29
2022/12/02 01:11:40;;;;;;;7.73;6.70;;;;;;;17.05;50.26;96879.44;10481098;28;20029;-29
2022/12/02 01:16:40;;;;;;;8.30;6.40;;;;;;;17.04;50.99;96879.44;10470095;28;21076;-30
2022/12/02 01:21:41;;;;;;;7.60;6.50;;;;;;;17.00;49.97;96873.50;10482878;28;20172;-29
2022/12/02 01:26:41;;;;;;;7.53;6.60;;;;;;;17.02;49.89;96868.47;10486035;28;20290;-30
2022/12/02 01:31:42;;;;;;;7.50;6.37;;;;;;;17.01;50.05;96871.81;10489957;28;20295;-29
2022/12/02 01:36:42;;;;;;;7.57;6.30;;;;;;;16.97;50.96;96865.91;10478497;28;20108;-29
2022/12/02 01:41:42;;;;;;;6.97;6.07;;;;;;;16.98;50.53;96867.59;10480703;28;20315;-29
2022/12/02 01:46:43;;;;;;;7.35;6.60;;;;;;;16.97;50.86;96872.63;10471511;28;20295;-29
2022/12/02 01:51:44;;;;;;;8.10;6.57;;;;;;;16.99;50.95;96868.44;10482123;28;20502;-30
2022/12/02 01:56:44;;;;;;;7.50;6.22;;;;;;;16.98;50.68;96871.81;10484990;28;20032;-29
2022/12/02 02:01:45;;;;;;;8.68;6.97;;;;;;;16.96;50.95;96869.25;10473028;28;20438;-30
2022/12/02 02:06:46;;;;;;;7.73;6.30;;;;;;;17.03;50.80;96870.16;10488710;28;20109;-30
2022/12/02 02:11:48;;;;;;;6.57;5.88;;;;;;;17.04;50.75;96862.59;10487462;28;20720;-28
2022/12/02 02:16:48;;;;;;;7.18;5.80;;;;;;;17.00;50.69;96849.91;10475694;28;20035;-29
2022/12/02 02:21:51;;;;;;;6.83;6.10;;;;;;;17.05;50.73;96858.34;10489390;28;20082;-28
2022/12/02 02:26:53;;;;;;;7.00;6.07;;;;;;;17.09;49.83;96855.03;10490223;28;20295;-30
2022/12/02 02:31:53;;;;;;;7.32;6.25;;;;;;;17.05;49.84;96848.25;10488605;28;20032;-29
2022/12/02 02:36:54;;;;;;;6.93;6.05;;;;;;;17.03;50.00;96842.31;10474769;28;20021;-28
2022/12/02 02:41:56;;;;;;;7.35;6.50;;;;;;;17.03;50.35;96842.31;10483887;28;20020;-29
2022/12/02 02:46:57;;;;;;;8.93;6.35;;;;;;;17.04;49.81;96836.44;10473560;28;20036;-29
2022/12/02 02:51:57;;;;;;;6.60;5.80;;;;;;;17.04;50.13;96831.38;10470748;28;20025;-29
2022/12/02 02:56:58;;;;;;;8.10;6.20;;;;;;;17.02;49.81;96825.47;10484710;28;20381;-29
2022/12/02 03:02:07;;;;;;;7.07;6.25;;;;;;;17.03;50.37;96824.63;10475677;28;20044;-30
2022/12/02 03:07:08;;;;;;;7.93;6.38;;;;;;;16.99;50.27;96816.16;10487150;28;20040;-29
2022/12/02 03:12:09;;;;;;;6.90;6.18;;;;;;;16.96;50.10;96807.72;10483343;28;20086;-29
2022/12/02 03:17:09;;;;;;;8.05;5.93;;;;;;;17.01;50.55;96806.06;10470970;28;20025;-28
2022/12/02 03:22:10;;;;;;;7.82;5.93;;;;;;;17.06;50.01;96809.50;10482795;28;20040;-29
2022/12/02 03:27:12;;;;;;;7.03;6.03;;;;;;;17.06;50.35;96809.50;10480612;28;20047;-29
2022/12/02 03:32:13;;;;;;;7.57;6.53;;;;;;;17.03;50.43;96812.84;10483333;28;20064;-29
2022/12/02 03:37:14;;;;;;;6.47;5.57;;;;;;;17.02;50.78;96815.34;10473483;28;20028;-29
2022/12/02 03:42:15;;;;;;;6.70;6.00;;;;;;;16.98;50.71;96817.00;10482807;28;20028;-29
2022/12/02 03:47:15;;;;;;;6.88;6.18;;;;;;;17.00;50.65;96814.50;10473379;28;20035;-29
2022/12/02 03:52:15;;;;;;;7.93;6.05;;;;;;;16.98;50.76;96811.94;10471550;28;20040;-29
2022/12/02 03:57:16;;;;;;;6.88;6.18;;;;;;;17.00;50.04;96804.38;10487176;28;20033;-29
2022/12/02 04:02:16;;;;;;;6.47;5.77;;;;;;;16.97;50.29;96804.34;10478657;28;20063;-29
2022/12/02 04:07:17;;;;;;;7.83;6.17;;;;;;;16.99;50.36;96803.53;10486419;28;20302;-29
2022/12/02 04:12:17;;;;;;;8.07;6.57;;;;;;;16.95;50.35;96795.91;10479725;28;20455;-29
2022/12/02 04:17:17;;;;;;;7.80;6.07;;;;;;;16.98;50.13;96790.88;10479927;28;20492;-29
2022/12/02 04:22:18;;;;;;;6.10;5.50;;;;;;;16.99;49.98;96792.56;10494234;28;20536;-28
2022/12/02 04:27:18;;;;;;;7.40;6.30;;;;;;;17.03;50.11;96794.28;10492582;28;20305;-30
2022/12/02 04:32:18;;;;;;;6.80;5.97;;;;;;;17.06;50.29;96789.25;10482731;28;20116;-29
2022/12/02 04:37:19;;;;;;;7.17;5.83;;;;;;;17.07;49.88;96786.72;10463020;28;20036;-28
2022/12/02 04:42:19;;;;;;;8.30;6.30;;;;;;;17.05;49.71;96788.41;10481808;28;20032;-29
2022/12/02 04:47:19;;;;;;;6.23;5.57;;;;;;;17.04;50.00;96785.84;10471002;28;20295;-29
2022/12/02 04:52:20;;;;;;;7.30;5.90;;;;;;;16.83;49.48;96747.78;10468653;28;20359;-30
2022/12/02 04:57:20;;;;;;;6.70;5.65;;;;;;;17.01;49.42;96775.72;10478699;28;20286;-29
2022/12/02 05:02:21;;;;;;;8.23;6.50;;;;;;;17.06;49.46;96779.97;10479552;28;20028;-29
2022/12/02 05:07:21;;;;;;;6.70;6.00;;;;;;;17.08;49.76;96783.34;10491550;28;20036;-29
2022/12/02 05:12:23;;;;;;;7.45;5.43;;;;;;;17.09;49.29;96774.09;10488441;28;20552;-29
2022/12/02 05:17:23;;;;;;;6.50;5.80;;;;;;;17.09;50.46;96764.78;10480426;28;20036;-30
2022/12/02 05:22:23;;;;;;;6.65;5.75;;;;;;;17.07;50.37;96765.66;10489390;28;20048;-28
2022/12/02 05:27:24;;;;;;;9.60;5.37;;;;;;;17.10;51.03;96750.47;10480305;28;20566;-28
2022/12/02 05:32:24;;;;;;;7.53;5.77;;;;;;;17.13;50.81;96763.13;10450248;28;20332;-29
2022/12/02 05:37:25;;;;;;;6.68;5.40;;;;;;;17.18;50.00;96762.34;10452043;28;20031;-29
2022/12/02 05:42:26;;;;;;;6.73;6.03;;;;;;;17.26;49.08;96762.38;10457487;28;20082;-31
2022/12/02 05:47:29;;;;;;;7.22;6.35;;;;;;;17.29;49.15;96767.44;10458384;28;20036;-29
2022/12/02 05:52:30;;;;;;;6.95;5.70;;;;;;;17.27;49.12;96759.88;10472721;28;20564;-31
2022/12/02 05:57:31;;;;;;;6.97;6.23;;;;;;;17.30;48.47;96766.59;10487675;28;20163;-29
2022/12/02 06:02:37;;;;;;;6.88;6.13;;;;;;;17.27;48.86;96759.00;10486431;28;20798;-29
2022/12/02 06:07:37;;;;;;;8.35;6.20;;;;;;;17.28;49.28;96764.09;10482074;28;20044;-29
2022/12/02 06:12:37;;;;;;;6.60;5.67;;;;;;;17.28;48.71;96765.75;10483896;28;20404;-29
2022/12/02 06:17:38;;;;;;;7.18;6.43;;;;;;;17.22;47.83;96755.59;10479941;28;20044;-29
2022/12/02 06:22:39;;;;;;;6.25;5.40;;;;;;;17.25;49.30;96755.63;10493077;28;20028;-29
2022/12/02 06:27:39;;;;;;;6.77;5.87;;;;;;;17.27;49.00;96753.94;10507401;28;20040;-29
2022/12/02 06:32:45;;;;;;;7.43;6.50;;;;;;;17.28;48.37;96745.50;10505951;28;20051;-28
2022/12/02 06:37:45;;;;;;;9.55;6.63;;;;;;;17.31;49.32;96745.56;10476275;28;20025;-29
2022/12/02 06:42:46;;;;;;;7.60;6.10;;;;;;;17.28;49.64;96743.00;10487003;28;20044;-29
2022/12/02 06:47:57;;;;;;;9.80;6.37;;;;;;;17.31;49.23;96746.38;10474009;28;20476;-29
2022/12/02 06:53:18;;;;;;;8.32;6.65;;;;;;;17.34;49.49;96748.09;10485061;28;20336;-29
2022/12/02 06:58:21;;;;;;;9.02;6.68;;;;;;;17.32;49.86;96747.25;10476127;28;20033;-29
2022/12/02 07:03:35;;;;;;;8.68;7.10;;;;;;;17.30;49.03;96753.94;10473297;28;20123;-29
2022/12/02 07:08:35;;;;;;;12.40;7.82;;;;;;;17.31;49.66;96751.44;10480402;28;20040;-30
2022/12/02 07:13:36;;;;;;;8.77;6.30;;;;;;;17.28;50.56;96755.63;10480950;28;20050;-29
2022/12/02 07:18:36;;;;;;;8.63;6.83;;;;;;;17.30;50.17;96748.91;10470821;28;20347;-29
2022/12/02 07:23:36;;;;;;;8.87;7.00;;;;;;;17.32;49.53;96759.88;10482589;28;20055;-29
2022/12/02 07:28:39;;;;;;;8.93;7.00;;;;;;;17.34;50.18;96755.69;10481924;28;20033;-29
2022/12/02 07:33:40;;;;;;;13.95;8.73;;;;;;;17.11;48.16;96747.09;10480289;28;20036;-29
2022/12/02 07:38:40;;;;;;;14.17;8.87;;;;;;;17.11;48.50;96753.03;10482690;28;20025;-30
2022/12/02 07:43:40;;;;;;;14.03;8.43;;;;;;;17.18;49.10;96748.84;10468637;28;20299;-30
2022/12/02 07:48:41;;;;;;;12.25;7.30;;;;;;;17.17;49.12;96755.56;10484285;28;20036;-30
2022/12/02 07:53:41;;;;;;;9.43;6.70;;;;;;;17.18;49.77;96752.22;10476007;28;20649;-29
2022/12/02 07:58:42;;;;;;;18.27;8.47;;;;;;;17.19;49.18;96753.06;10477498;28;20343;-29
2022/12/02 08:03:42;;;;;;;10.17;6.97;;;;;;;17.20;52.66;96753.06;10480355;28;20032;-29
2022/12/02 08:08:42;;;;;;;10.20;6.97;;;;;;;17.22;52.51;96742.94;10485550;28;20506;-29
2022/12/02 08:13:43;;;;;;;14.50;7.13;;;;;;;17.24;53.01;96748.88;10479520;28;20043;-29
2022/12/02 08:18:43;;;;;;;9.07;6.90;;;;;;;17.22;52.35;96750.53;10475155;28;20025;-29
2022/12/02 08:23:43;;;;;;;11.37;7.90;;;;;;;17.11;51.93;96747.09;10481502;28;20017;-29
2022/12/02 08:28:44;;;;;;;20.98;7.93;;;;;;;17.16;50.57;96742.94;10480435;28;20090;-29
2022/12/02 08:33:44;;;;;;;13.03;6.87;;;;;;;17.18;52.52;96747.16;10475728;28;20046;-29
2022/12/02 08:38:45;;;;;;;10.40;7.70;;;;;;;17.17;51.25;96742.09;10480634;28;20639;-29
2022/12/02 08:43:46;;;;;;;15.77;7.95;;;;;;;17.17;52.00;96742.09;10473430;28;20341;-29
2022/12/02 08:48:46;;;;;;;11.20;7.63;;;;;;;17.21;50.87;96744.66;10481304;28;20048;-30
2022/12/02 08:53:47;;;;;;;12.53;7.23;;;;;;;17.23;51.40;96744.66;10475625;28;20029;-30
2022/12/02 08:58:48;;;;;;;9.10;6.30;;;;;;;17.23;50.51;96737.91;10482483;28;20294;-28
2022/12/02 09:03:48;;;;;;;8.65;6.28;;;;;;;17.22;50.91;96732.81;10481776;28;20135;-29
2022/12/02 09:08:49;;;;;;;10.35;6.88;;;;;;;17.20;50.99;96729.44;10478241;28;20124;-29
2022/12/02 09:13:49;;;;;;;9.70;6.80;;;;;;;17.24;51.07;96728.63;10474610;28;20041;-29
2022/12/02 09:18:50;;;;;;;8.90;7.10;;;;;;;17.29;52.34;96722.75;10475353;28;20595;-29
2022/12/02 09:23:50;;;;;;;7.18;6.40;;;;;;;17.32;50.51;96724.47;10498288;28;20047;-29
2022/12/02 09:28:50;;;;;;;7.60;6.20;;;;;;;17.32;50.36;96721.94;10478487;28;20040;-29
2022/12/02 09:33:51;;;;;;;7.33;5.90;;;;;;;17.32;51.08;96716.88;10473208;28;20420;-29
2022/12/02 09:38:51;;;;;;;8.88;6.25;;;;;;;17.31;51.49;96720.25;10479835;28;20408;-29
2022/12/02 09:43:52;;;;;;;6.40;5.67;;;;;;;17.27;50.80;96718.53;10474548;28;20415;-29
2022/12/02 09:48:52;;;;;;;12.38;7.72;;;;;;;17.29;49.54;96716.84;10488973;28;20079;-29
2022/12/02 09:53:53;;;;;;;7.73;6.00;;;;;;;17.27;50.24;96713.47;10479509;28;20107;-28
2022/12/02 09:58:55;;;;;;;8.80;6.63;;;;;;;17.27;49.99;96706.72;10486361;28;20282;-30
2022/12/02 10:03:55;;;;;;;11.18;6.65;;;;;;;17.27;50.21;96708.41;10487005;28;20032;-29
2022/12/02 10:08:56;;;;;;;8.53;6.27;;;;;;;17.29;49.71;96701.66;10483388;28;20101;-29
2022/12/02 10:13:58;;;;;;;12.32;7.25;;;;;;;17.25;50.38;96694.91;10488889;28;20040;-29
2022/12/02 10:19:03;;;;;;;9.32;6.75;;;;;;;17.22;51.99;96684.75;10488341;28;20103;-29
2022/12/02 10:24:08;;;;;;;13.70;6.57;;;;;;;17.23;54.44;96682.25;10484098;28;20040;-29
2022/12/02 10:29:16;;;;;;;12.20;5.63;;;;;;;17.24;53.12;96678.03;10482387;28;20036;-29
2022/12/02 10:34:20;;;;;;;8.88;5.50;;;;;;;17.32;53.19;96676.38;10481139;28;20494;-30
2022/12/02 10:39:21;;;;;;;13.57;6.28;;;;;;;17.34;53.10;96674.69;10479346;28;20505;-29
2022/12/02 10:44:21;;;;;;;8.15;5.50;;;;;;;17.35;52.64;96666.28;10487597;28;20127;-29
2022/12/02 10:49:27;;;;;;;6.60;5.18;;;;;;;17.36;52.77;96673.03;10482742;28;20033;-29
2022/12/02 10:54:31;;;;;;;6.35;5.38;;;;;;;17.38;53.71;96666.28;10480430;28;20368;-29
2022/12/02 10:59:32;;;;;;;7.60;5.55;;;;;;;17.35;53.38;96664.59;10478455;28;20494;-29
2022/12/02 11:04:33;;;;;;;8.05;5.78;;;;;;;17.38;53.98;96656.19;10473937;28;20033;-30
2022/12/02 11:09:33;;;;;;;6.10;4.93;;;;;;;17.37;54.03;96654.50;10487373;28;20434;-30
2022/12/02 11:14:39;;;;;;;10.32;5.20;;;;;;;17.35;54.45;96651.09;10472222;28;20305;-29
2022/12/02 11:19:45;;;;;;;7.35;5.43;;;;;;;17.37;55.19;96649.44;10484609;28;20499;-29
2022/12/02 11:24:45;;;;;;;5.30;4.80;;;;;;;17.37;54.91;96644.38;10481235;28;20045;-29
2022/12/02 11:30:05;;;;;;;7.10;4.80;;;;;;;17.35;55.31;96640.97;10481627;28;20416;-29
2022/12/02 11:35:14;;;;;;;8.05;5.40;;;;;;;17.31;55.65;96629.16;10476531;28;20317;-30
2022/12/02 11:40:17;;;;;;;8.02;6.35;;;;;;;17.38;55.19;96634.25;10478549;28;20033;-29
2022/12/02 11:45:18;;;;;;;8.52;5.13;;;;;;;17.43;57.25;96624.16;10471732;28;20036;-29
2022/12/02 11:50:26;;;;;;;7.68;5.05;;;;;;;17.44;55.82;96618.25;10475104;28;20040;-31
2022/12/02 11:55:35;;;;;;;7.32;4.90;;;;;;;17.43;55.40;96617.41;10500591;28;20113;-29
2022/12/02 12:00:39;;;;;;;10.45;5.35;;;;;;;17.41;54.50;96610.66;10483512;28;20040;-30
2022/12/02 12:05:42;;;;;;;7.43;4.93;;;;;;;17.40;54.92;96608.97;10471561;28;20024;-29
2022/12/02 12:10:42;;;;;;;6.43;4.30;;;;;;;17.43;54.87;96608.97;10476233;28;20123;-29
2022/12/02 12:15:50;;;;;;;16.17;6.57;;;;;;;17.43;54.73;96604.75;10473786;28;20029;-29
2022/12/02 12:20:50;;;;;;;7.75;5.28;;;;;;;17.41;55.55;96600.53;10480441;28;20647;-29
2022/12/02 12:25:52;;;;;;;6.68;4.90;;;;;;;17.41;54.46;96595.47;10479216;28;20036;-28
2022/12/02 12:30:53;;;;;;;7.25;5.85;;;;;;;17.39;53.98;96592.06;10481673;28;20028;-29
2022/12/02 12:35:55;;;;;;;8.55;5.68;;;;;;;17.39;54.78;96592.06;10476893;28;20028;-29
2022/12/02 12:40:57;;;;;;;8.75;5.32;;;;;;;17.38;55.25;96581.13;10483744;28;20302;-29
2022/12/02 12:45:57;;;;;;;6.70;5.38;;;;;;;17.24;55.36;96556.59;10465889;28;20029;-31
2022/12/02 12:50:57;;;;;;;6.93;5.30;;;;;;;17.40;54.56;96565.94;10469847;28;20499;-29
2022/12/02 12:55:58;;;;;;;8.50;4.87;;;;;;;17.47;55.47;96562.56;10475689;28;20158;-30
2022/12/02 13:00:58;;;;;;;9.00;5.03;;;;;;;17.47;55.22;96567.63;10471319;28;20479;-29
2022/12/02 13:05:59;;;;;;;8.73;4.73;;;;;;;17.43;55.75;96558.34;10471869;28;20032;-30
2022/12/02 13:10:59;;;;;;;12.35;4.53;;;;;;;17.43;55.38;96553.28;10482948;28;20279;-30
2022/12/02 13:16:00;;;;;;;9.27;5.23;;;;;;;17.40;56.80;96553.28;10480999;28;20135;-29
2022/12/02 13:21:00;;;;;;;7.97;5.07;;;;;;;17.43;56.11;96543.16;10483129;28;20312;-29
2022/12/02 13:26:00;;;;;;;9.20;5.30;;;;;;;17.42;56.21;96539.78;10487448;28;20028;-29
2022/12/02 13:31:01;;;;;;;6.87;4.47;;;;;;;17.43;56.36;96543.16;10478334;28;20103;-29
2022/12/02 13:36:01;;;;;;;7.27;4.83;;;;;;;17.37;55.13;96538.09;10478799;28;20122;-29
2022/12/02 13:41:01;;;;;;;9.63;6.43;;;;;;;17.41;55.70;96535.56;10489849;28;20038;-29
2022/12/02 13:46:02;;;;;;;11.47;5.40;;;;;;;17.41;56.27;96539.81;10480135;28;20115;-29
2022/12/02 13:51:03;;;;;;;6.38;4.93;;;;;;;17.43;55.87;96538.97;10485307;28;20043;-29
2022/12/02 13:56:03;;;;;;;6.38;4.68;;;;;;;17.36;56.01;96521.22;10488392;28;20483;-29
2022/12/02 14:01:03;;;;;;;7.95;4.90;;;;;;;17.43;55.95;96538.09;10485328;28;20529;-29
2022/12/02 14:06:04;;;;;;;7.60;4.53;;;;;;;17.50;55.75;96524.63;10473490;28;20308;-29
2022/12/02 14:11:04;;;;;;;6.65;5.60;;;;;;;17.49;55.76;96521.22;10489077;28;20391;-29
2022/12/02 14:16:05;;;;;;;7.40;5.18;;;;;;;17.46;57.55;96517.84;10481711;28;20032;-30
2022/12/02 14:21:06;;;;;;;7.55;4.60;;;;;;;17.45;56.60;96519.56;10483918;28;20032;-29
2022/12/02 14:26:06;;;;;;;6.65;4.95;;;;;;;17.46;56.78;96515.31;10480779;28;20029;-29
2022/12/02 14:31:07;;;;;;;4.88;4.35;;;;;;;17.48;57.16;96509.44;10483317;28;20041;-30
2022/12/02 14:36:07;;;;;;;5.20;4.30;;;;;;;17.49;56.38;96512.81;10476394;28;20037;-29
2022/12/02 14:41:07;;;;;;;7.35;5.10;;;;;;;17.43;56.75;96517.84;10487215;28;20051;-29
2022/12/02 14:46:08;;;;;;;6.33;4.60;;;;;;;17.43;55.86;96511.13;10479263;28;20032;-29
2022/12/02 14:51:08;;;;;;;6.03;4.63;;;;;;;17.42;56.21;96518.72;10474750;28;20033;-29
2022/12/02 14:56:09;;;;;;;6.25;4.55;;;;;;;17.44;56.35;96515.34;10486443;28;20033;-30
2022/12/02 15:01:09;;;;;;;5.03;3.97;;;;;;;17.46;55.93;96505.19;10474035;28;20032;-29
2022/12/02 15:06:09;;;;;;;6.13;4.70;;;;;;;17.45;56.30;96504.38;10483413;28;20115;-28
2022/12/02 15:11:10;;;;;;;5.17;4.17;;;;;;;17.43;56.72;96498.47;10486652;28;20039;-29
2022/12/02 15:16:10;;;;;;;6.20;4.93;;;;;;;17.51;55.96;96511.13;10478523;28;20376;-29
2022/12/02 15:21:10;;;;;;;4.67;3.63;;;;;;;17.52;56.26;96512.81;10482736;28;20032;-29
2022/12/02 15:26:11;;;;;;;5.80;4.57;;;;;;;17.51;55.91;96511.13;10479937;28;20045;-29
2022/12/02 15:31:11;;;;;;;7.00;4.40;;;;;;;17.47;57.07;96509.41;10477315;28;20173;-29
2022/12/02 15:36:12;;;;;;;5.95;3.80;;;;;;;17.47;56.79;96514.47;10482415;28;20027;-28
2022/12/02 15:41:13;;;;;;;5.10;4.25;;;;;;;17.46;56.55;96505.19;10496817;28;20059;-29
2022/12/02 15:46:13;;;;;;;7.75;5.20;;;;;;;17.42;57.64;96514.47;10480713;28;20107;-29
2022/12/02 15:51:14;;;;;;;7.03;4.37;;;;;;;17.46;56.58;96517.84;10481986;28;20476;-29
2022/12/02 15:56:14;;;;;;;10.93;4.50;;;;;;;17.48;57.13;96518.72;10484316;28;20286;-29
2022/12/02 16:01:15;;;;;;;8.23;4.95;;;;;;;17.49;56.85;96510.28;10467578;28;20480;-30
2022/12/02 16:06:15;;;;;;;6.53;4.40;;;;;;;17.48;56.88;96514.47;10468637;28;20029;-29
2022/12/02 16:11:16;;;;;;;9.30;5.30;;;;;;;17.36;55.38;96513.63;10484752;28;20036;-29
2022/12/02 16:16:16;;;;;;;8.43;5.30;;;;;;;17.29;54.47;96519.50;10471436;28;20043;-29
2022/12/02 16:21:17;;;;;;;10.47;6.43;;;;;;;17.41;53.96;96520.38;10481820;28;20314;-29
2022/12/02 16:26:17;;;;;;;12.80;5.68;;;;;;;17.45;54.90;96516.16;10479130;28;20306;-30
2022/12/02 16:31:21;;;;;;;9.93;5.30;;;;;;;17.44;56.38;96519.53;10479638;28;20040;-30
2022/12/02 16:36:21;;;;;;;6.40;4.97;;;;;;;17.39;56.56;96509.41;10481839;28;20054;-30
2022/12/02 16:41:22;;;;;;;10.45;5.00;;;;;;;17.50;56.11;96524.63;10479599;28;20094;-28
2022/12/02 16:46:22;;;;;;;7.23;5.03;;;;;;;17.50;56.08;96522.91;10477831;28;20036;-29
2022/12/02 16:51:23;;;;;;;6.95;5.10;;;;;;;17.50;55.83;96529.69;10478502;28;20295;-29
2022/12/02 16:56:23;;;;;;;6.60;3.83;;;;;;;17.50;56.06;96522.09;10493754;28;20032;-29
2022/12/02 17:01:24;;;;;;;7.13;4.13;;;;;;;17.53;55.94;96525.47;10482506;28;20365;-29
2022/12/02 17:06:24;;;;;;;5.95;3.92;;;;;;;17.54;56.52;96517.03;10491898;28;20025;-30
2022/12/02 17:11:24;;;;;;;8.70;3.93;;;;;;;17.54;56.34;96526.28;10491011;28;20089;-29
2022/12/02 17:16:25;;;;;;;5.67;4.03;;;;;;;17.53;57.07;96525.47;10484361;28;20032;-29
2022/12/02 17:21:25;;;;;;;5.50;3.90;;;;;;;17.55;56.56;96518.72;10485361;28;20040;-29
2022/12/02 17:26:25;;;;;;;6.43;3.83;;;;;;;17.58;57.41;96522.94;10483619;28;20029;-30
2022/12/02 17:31:26;;;;;;;4.33;3.73;;;;;;;17.61;57.05;96520.41;10485757;28;20290;-30
2022/12/02 17:36:26;;;;;;;5.40;3.57;;;;;;;17.63;58.07;96533.88;10478141;28;20285;-30
2022/12/02 17:41:29;;;;;;;5.18;3.45;;;;;;;17.61;56.92;96538.13;10486152;28;20294;-29
2022/12/02 17:46:29;;;;;;;6.50;4.38;;;;;;;17.61;57.13;96535.59;10472749;28;20033;-28
2022/12/02 17:51:29;;;;;;;4.45;3.65;;;;;;;17.61;56.52;96528.00;10476098;28;20041;-29
2022/12/02 17:56:30;;;;;;;5.33;3.40;;;;;;;17.62;56.53;96539.81;10479324;28;20021;-30
2022/12/02 18:01:30;;;;;;;4.47;3.60;;;;;;;17.62;56.53;96545.72;10478889;28;20063;-29
2022/12/02 18:06:30;;;;;;;4.80;3.80;;;;;;;17.60;57.12;96533.91;10490606;28;20381;-31
2022/12/02 18:11:31;;;;;;;5.10;3.40;;;;;;;17.61;57.05;96528.84;10489813;28;20043;-29
2022/12/02 18:16:31;;;;;;;6.00;3.40;;;;;;;17.62;56.56;96529.69;10485106;28;20017;-29
2022/12/02 18:21:32;;;;;;;4.50;3.57;;;;;;;17.63;57.21;96528.81;10485627;28;20029;-29
2022/12/02 18:26:32;;;;;;;4.90;3.47;;;;;;;17.62;57.16;96529.69;10483592;28;20287;-29
2022/12/02 18:31:33;;;;;;;5.10;2.90;;;;;;;17.63;56.85;96532.22;10488576;28;20047;-29
2022/12/02 18:36:34;;;;;;;3.45;3.15;;;;;;;17.68;57.75;96530.50;10475991;28;20029;-29
2022/12/02 18:41:34;;;;;;;5.07;3.60;;;;;;;17.74;57.79;96524.63;10486149;28;20415;-29
2022/12/02 18:46:34;;;;;;;3.40;3.10;;;;;;;17.71;57.62;96525.47;10472663;28;20033;-29
2022/12/02 18:51:35;;;;;;;3.63;2.90;;;;;;;17.67;57.75;96523.75;10474664;28;20086;-29
2022/12/02 18:56:35;;;;;;;4.63;3.47;;;;;;;17.66;57.34;96526.31;10489530;28;20283;-31
2022/12/02 19:01:35;;;;;;;4.70;3.15;;;;;;;17.64;57.18;96517.84;10481847;28;20024;-29
2022/12/02 19:06:36;;;;;;;3.73;3.17;;;;;;;17.67;57.04;96522.94;10488168;28;20527;-29
2022/12/02 19:11:36;;;;;;;4.37;3.43;;;;;;;17.69;57.88;96521.25;10488129;28;20039;-29
2022/12/02 19:16:38;;;;;;;3.53;3.03;;;;;;;17.68;57.88;96510.25;10479701;28;20294;-29
2022/12/02 19:21:38;;;;;;;4.72;2.78;;;;;;;17.64;57.19;96507.72;10483681;28;20089;-29
2022/12/02 19:26:39;;;;;;;3.30;2.92;;;;;;;17.67;57.90;96507.75;10481133;28;20549;-29
2022/12/02 19:31:39;;;;;;;3.50;2.87;;;;;;;17.68;57.63;96509.44;10478512;28;20040;-29
2022/12/02 19:36:39;;;;;;;3.10;2.80;;;;;;;17.67;57.67;96510.28;10482525;28;20028;-28
2022/12/02 19:41:40;;;;;;;3.40;2.88;;;;;;;17.65;57.90;96514.50;10481351;28;20466;-29
2022/12/02 19:46:41;;;;;;;4.07;3.53;;;;;;;17.71;58.22;96509.41;10481243;28;20040;-29
2022/12/02 19:51:41;;;;;;;8.18;3.40;;;;;;;17.75;58.58;96506.06;10474621;28;20070;-29
2022/12/02 19:56:42;;;;;;;6.63;3.05;;;;;;;17.73;58.35;96502.69;10486719;28;20374;-31
2022/12/02 20:01:42;;;;;;;5.30;3.22;;;;;;;17.68;57.05;96495.06;10479379;28;20032;-29
2022/12/02 20:06:42;;;;;;;3.80;3.40;;;;;;;17.69;56.50;96501.00;10481560;28;20024;-30
2022/12/02 20:11:44;;;;;;;3.67;2.90;;;;;;;17.66;56.33;96506.88;10475571;28;20282;-29
2022/12/02 20:16:44;;;;;;;9.85;3.83;;;;;;;17.70;56.15;96502.66;10473215;28;20067;-31
2022/12/02 20:21:45;;;;;;;5.30;3.40;;;;;;;17.70;56.53;96498.47;10473373;28;20170;-29
2022/12/02 20:26:45;;;;;;;4.97;3.30;;;;;;;17.74;55.95;96499.31;10479448;28;20032;-28
2022/12/02 20:31:46;;;;;;;7.93;2.97;;;;;;;17.75;55.69;96503.53;10471934;28;20064;-29
2022/12/02 20:36:46;;;;;;;3.85;3.20;;;;;;;17.76;55.81;96495.09;10465581;28;20041;-29
2022/12/02 20:41:47;;;;;;;6.50;3.80;;;;;;;17.78;56.30;96495.91;10479608;28;20068;-30
2022/12/02 20:46:47;;;;;;;10.45;3.65;;;;;;;17.77;56.10;96482.44;10467736;28;20448;-29
2022/12/02 20:51:48;;;;;;;8.55;4.40;;;;;;;17.76;55.30;96490.00;10466631;28;20025;-29
2022/12/02 20:56:48;;;;;;;9.03;5.00;;;;;;;17.68;55.35;96490.00;10479502;28;20059;-30
2022/12/02 21:01:48;;;;;;;7.13;5.10;;;;;;;17.73;55.31;96493.38;10475003;28;20301;-29
2022/12/02 21:06:49;;;;;;;11.07;4.83;;;;;;;17.71;55.24;96491.69;10478881;28;20067;-29
2022/12/02 21:11:49;;;;;;;6.80;4.77;;;;;;;17.67;55.37;96495.09;10480247;28;20971;-29
2022/12/02 21:16:52;;;;;;;7.18;4.63;;;;;;;17.63;55.50;96475.66;10466100;28;20298;-29
2022/12/02 21:21:52;;;;;;;9.25;4.95;;;;;;;17.73;55.06;96497.63;10476936;28;20536;-30
2022/12/02 21:26:53;;;;;;;7.47;4.60;;;;;;;17.77;55.11;96504.38;10473913;28;20036;-28
2022/12/02 21:31:53;;;;;;;7.40;5.43;;;;;;;17.77;55.18;96499.28;10473445;28;20636;-29
2022/12/02 21:36:53;;;;;;;9.40;5.00;;;;;;;17.78;54.95;96500.97;10466274;28;20055;-30
2022/12/02 21:41:54;;;;;;;9.83;4.83;;;;;;;17.77;55.61;96504.38;10487378;28;20028;-30
2022/12/02 21:46:54;;;;;;;7.97;4.50;;;;;;;17.79;55.83;96502.66;10480623;28;20032;-29
2022/12/02 21:51:55;;;;;;;7.27;4.90;;;;;;;17.76;55.90;96508.56;10479130;28;20032;-30
2022/12/02 21:56:55;;;;;;;5.47;4.33;;;;;;;17.76;55.51;96508.56;10488587;28;20279;-29
2022/12/02 22:01:55;;;;;;;7.53;4.73;;;;;;;17.78;55.04;96518.72;10486982;28;20032;-30
2022/12/02 22:07:39;;;;;;;8.93;5.53;;;;;;;17.77;55.54;96510.28;10478305;28;20412;-29
2022/12/02 22:12:17;;;;;;;8.95;5.22;;;;;;;17.77;55.70;96517.88;10481408;28;20277;-29
2022/12/02 22:17:18;;;;;;;6.13;4.30;;;;;;;17.74;55.94;96515.31;10476759;28;20043;-29
2022/12/02 22:22:19;;;;;;;8.07;4.97;;;;;;;17.71;55.44;96515.34;10487905;28;20605;-30
2022/12/02 22:27:19;;;;;;;8.90;5.30;;;;;;;17.79;56.45;96522.91;10490227;28;20033;-30
2022/12/02 22:32:20;;;;;;;12.40;7.70;;;;;;;17.75;56.04;96521.25;10483104;28;20055;-31
2022/12/02 22:37:20;;;;;;;12.05;7.57;;;;;;;17.74;56.15;96519.56;10480941;28;20017;-29
2022/12/02 22:42:20;;;;;;;18.73;7.93;;;;;;;17.73;56.03;96516.19;10489307;28;20028;-30
2022/12/02 22:47:21;;;;;;;12.00;7.63;;;;;;;17.71;56.18;96514.47;10481695;28;20340;-30
2022/12/02 22:52:21;;;;;;;11.80;6.70;;;;;;;17.73;57.22;96517.88;10465231;28;20305;-30
2022/12/02 22:57:22;;;;;;;16.57;8.53;;;;;;;17.73;56.30;96513.63;10488119;28;20033;-29
2022/12/02 23:02:22;;;;;;;15.40;7.93;;;;;;;17.70;55.88;96512.81;10483654;28;20290;-29
2022/12/02 23:07:22;;;;;;;10.93;6.60;;;;;;;17.70;55.25;96513.66;10488514;28;20039;-29
2022/12/02 23:12:24;;;;;;;9.73;5.70;;;;;;;17.70;55.97;96520.41;10482996;28;20067;-30
2022/12/02 23:17:24;;;;;;;10.50;7.80;;;;;;;17.71;55.69;96504.34;10477103;28;20029;-30